sensor_id;sensor_type;location;lat;lon;timestamp;P1;durP1;ratioP1;P2;durP2;ratioP2
6209;SDS011;3138;52.550;13.148;2022-09-09T00:01:14;14.17;;;8.63;;
6209;SDS011;3138;52.550;13.148;2022-09-09T00:03:53;8.93;;;7.80;;
6209;SDS011;3138;52.550;13.148;2022-09-09T00:06:26;15.83;;;9.47;;
6209;SDS011;3138;52.550;13.148;2022-09-09T00:09:00;18.93;;;9.17;;
6209;SDS011;3138;52.550;13.148;2022-09-09T00:11:34;16.73;;;8.67;;
6209;SDS011;3138;52.550;13.148;2022-09-09T00:14:14;89.27;;;10.80;;
6209;SDS011;3138;52.550;13.148;2022-09-09T00:16:50;17.10;;;9.43;;
6209;SDS011;3138;52.550;13.148;2022-09-09T00:19:22;119.80;;;13.70;;
6209;SDS011;3138;52.550;13.148;2022-09-09T00:21:59;22.13;;;8.47;;
6209;SDS011;3138;52.550;13.148;2022-09-09T00:24:35;10.80;;;7.90;;
6209;SDS011;3138;52.550;13.148;2022-09-09T00:27:06;9.07;;;8.20;;
6209;SDS011;3138;52.550;13.148;2022-09-09T00:29:41;22.83;;;9.10;;
6209;SDS011;3138;52.550;13.148;2022-09-09T00:32:13;7.70;;;7.00;;
6209;SDS011;3138;52.550;13.148;2022-09-09T00:34:44;12.03;;;7.63;;
6209;SDS011;3138;52.550;13.148;2022-09-09T00:37:14;8.90;;;7.47;;
6209;SDS011;3138;52.550;13.148;2022-09-09T00:39:42;18.03;;;7.17;;
6209;SDS011;3138;52.550;13.148;2022-09-09T00:42:13;7.90;;;7.23;;
6209;SDS011;3138;52.550;13.148;2022-09-09T00:44:48;8.83;;;7.93;;
6209;SDS011;3138;52.550;13.148;2022-09-09T00:47:39;8.20;;;7.40;;
6209;SDS011;3138;52.550;13.148;2022-09-09T00:50:16;10.80;;;7.23;;
6209;SDS011;3138;52.550;13.148;2022-09-09T00:52:56;6.90;;;5.73;;
6209;SDS011;3138;52.550;13.148;2022-09-09T00:55:33;8.17;;;7.13;;
6209;SDS011;3138;52.550;13.148;2022-09-09T00:58:08;11.07;;;8.83;;
6209;SDS011;3138;52.550;13.148;2022-09-09T01:00:35;13.90;;;7.43;;
6209;SDS011;3138;52.550;13.148;2022-09-09T01:03:14;29.13;;;9.87;;
6209;SDS011;3138;52.550;13.148;2022-09-09T01:05:51;14.57;;;9.87;;
6209;SDS011;3138;52.550;13.148;2022-09-09T01:08:29;13.23;;;9.77;;
6209;SDS011;3138;52.550;13.148;2022-09-09T01:11:09;9.57;;;8.03;;
6209;SDS011;3138;52.550;13.148;2022-09-09T01:13:42;13.93;;;10.87;;
6209;SDS011;3138;52.550;13.148;2022-09-09T01:16:13;20.57;;;10.07;;
6209;SDS011;3138;52.550;13.148;2022-09-09T01:18:43;17.90;;;10.17;;
6209;SDS011;3138;52.550;13.148;2022-09-09T01:21:14;13.43;;;11.63;;
6209;SDS011;3138;52.550;13.148;2022-09-09T01:23:56;13.47;;;11.67;;
6209;SDS011;3138;52.550;13.148;2022-09-09T01:26:35;14.80;;;10.87;;
6209;SDS011;3138;52.550;13.148;2022-09-09T01:29:04;12.87;;;11.60;;
6209;SDS011;3138;52.550;13.148;2022-09-09T01:31:35;18.00;;;11.77;;
6209;SDS011;3138;52.550;13.148;2022-09-09T01:34:08;20.47;;;12.30;;
6209;SDS011;3138;52.550;13.148;2022-09-09T01:36:39;14.67;;;11.53;;
6209;SDS011;3138;52.550;13.148;2022-09-09T01:39:10;23.60;;;13.97;;
6209;SDS011;3138;52.550;13.148;2022-09-09T01:41:39;22.47;;;12.50;;
6209;SDS011;3138;52.550;13.148;2022-09-09T01:44:06;15.37;;;12.83;;
6209;SDS011;3138;52.550;13.148;2022-09-09T01:46:34;15.67;;;12.47;;
6209;SDS011;3138;52.550;13.148;2022-09-09T01:49:10;16.10;;;11.40;;
6209;SDS011;3138;52.550;13.148;2022-09-09T01:51:37;24.57;;;12.87;;
6209;SDS011;3138;52.550;13.148;2022-09-09T01:54:06;16.17;;;11.90;;
6209;SDS011;3138;52.550;13.148;2022-09-09T01:56:35;13.67;;;12.20;;
6209;SDS011;3138;52.550;13.148;2022-09-09T01:59:18;14.03;;;12.07;;
6209;SDS011;3138;52.550;13.148;2022-09-09T02:02:00;17.50;;;12.90;;
6209;SDS011;3138;52.550;13.148;2022-09-09T02:04:39;18.20;;;12.40;;
6209;SDS011;3138;52.550;13.148;2022-09-09T02:07:10;12.60;;;11.30;;
6209;SDS011;3138;52.550;13.148;2022-09-09T02:09:52;27.00;;;13.10;;
6209;SDS011;3138;52.550;13.148;2022-09-09T02:12:26;13.90;;;11.87;;
6209;SDS011;3138;52.550;13.148;2022-09-09T02:14:56;13.67;;;10.63;;
6209;SDS011;3138;52.550;13.148;2022-09-09T02:17:30;14.67;;;12.43;;
6209;SDS011;3138;52.550;13.148;2022-09-09T02:20:02;18.13;;;11.97;;
6209;SDS011;3138;52.550;13.148;2022-09-09T02:22:31;24.17;;;11.07;;
6209;SDS011;3138;52.550;13.148;2022-09-09T02:25:00;22.63;;;12.60;;
6209;SDS011;3138;52.550;13.148;2022-09-09T02:27:29;14.60;;;11.70;;
6209;SDS011;3138;52.550;13.148;2022-09-09T02:29:56;16.63;;;12.50;;
6209;SDS011;3138;52.550;13.148;2022-09-09T02:32:24;13.23;;;11.80;;
6209;SDS011;3138;52.550;13.148;2022-09-09T02:34:52;11.43;;;9.50;;
6209;SDS011;3138;52.550;13.148;2022-09-09T02:37:23;33.10;;;11.17;;
6209;SDS011;3138;52.550;13.148;2022-09-09T02:39:54;13.30;;;10.87;;
6209;SDS011;3138;52.550;13.148;2022-09-09T02:42:21;25.33;;;11.10;;
6209;SDS011;3138;52.550;13.148;2022-09-09T02:44:49;14.20;;;11.23;;
6209;SDS011;3138;52.550;13.148;2022-09-09T02:47:19;12.63;;;11.30;;
6209;SDS011;3138;52.550;13.148;2022-09-09T02:49:56;11.40;;;9.93;;
6209;SDS011;3138;52.550;13.148;2022-09-09T02:52:32;11.97;;;9.20;;
6209;SDS011;3138;52.550;13.148;2022-09-09T02:55:06;18.40;;;11.90;;
6209;SDS011;3138;52.550;13.148;2022-09-09T02:57:36;30.40;;;11.23;;
6209;SDS011;3138;52.550;13.148;2022-09-09T03:00:06;11.20;;;10.00;;
6209;SDS011;3138;52.550;13.148;2022-09-09T03:02:33;12.23;;;10.13;;
6209;SDS011;3138;52.550;13.148;2022-09-09T03:05:00;22.23;;;11.17;;
6209;SDS011;3138;52.550;13.148;2022-09-09T03:07:27;13.40;;;11.97;;
6209;SDS011;3138;52.550;13.148;2022-09-09T03:09:56;16.27;;;11.70;;
6209;SDS011;3138;52.550;13.148;2022-09-09T03:12:23;19.20;;;10.90;;
6209;SDS011;3138;52.550;13.148;2022-09-09T03:14:50;147.53;;;15.10;;
6209;SDS011;3138;52.550;13.148;2022-09-09T03:17:18;19.00;;;10.50;;
6209;SDS011;3138;52.550;13.148;2022-09-09T03:19:45;141.87;;;14.80;;
6209;SDS011;3138;52.550;13.148;2022-09-09T03:22:12;16.70;;;10.93;;
6209;SDS011;3138;52.550;13.148;2022-09-09T03:24:39;11.83;;;9.80;;
6209;SDS011;3138;52.550;13.148;2022-09-09T03:27:06;12.50;;;10.20;;
6209;SDS011;3138;52.550;13.148;2022-09-09T03:29:33;192.27;;;16.30;;
6209;SDS011;3138;52.550;13.148;2022-09-09T03:31:59;13.93;;;9.07;;
6209;SDS011;3138;52.550;13.148;2022-09-09T03:34:29;15.37;;;9.47;;
6209;SDS011;3138;52.550;13.148;2022-09-09T03:36:57;13.60;;;10.27;;
6209;SDS011;3138;52.550;13.148;2022-09-09T03:39:24;14.80;;;9.20;;
6209;SDS011;3138;52.550;13.148;2022-09-09T03:41:50;108.57;;;13.47;;
6209;SDS011;3138;52.550;13.148;2022-09-09T03:44:17;10.63;;;9.50;;
6209;SDS011;3138;52.550;13.148;2022-09-09T03:46:44;18.00;;;12.00;;
6209;SDS011;3138;52.550;13.148;2022-09-09T03:49:10;15.07;;;12.00;;
6209;SDS011;3138;52.550;13.148;2022-09-09T03:51:39;12.93;;;10.43;;
6209;SDS011;3138;52.550;13.148;2022-09-09T03:54:05;11.30;;;9.97;;
6209;SDS011;3138;52.550;13.148;2022-09-09T03:56:44;15.13;;;12.70;;
6209;SDS011;3138;52.550;13.148;2022-09-09T03:59:11;15.23;;;10.40;;
6209;SDS011;3138;52.550;13.148;2022-09-09T04:01:39;13.20;;;10.53;;
6209;SDS011;3138;52.550;13.148;2022-09-09T04:04:06;27.27;;;11.67;;
6209;SDS011;3138;52.550;13.148;2022-09-09T04:06:33;20.33;;;11.30;;
6209;SDS011;3138;52.550;13.148;2022-09-09T04:09:02;12.13;;;10.53;;
6209;SDS011;3138;52.550;13.148;2022-09-09T04:11:29;222.20;;;18.10;;
6209;SDS011;3138;52.550;13.148;2022-09-09T04:13:59;50.10;;;11.40;;
6209;SDS011;3138;52.550;13.148;2022-09-09T04:16:25;9.73;;;8.73;;
6209;SDS011;3138;52.550;13.148;2022-09-09T04:18:52;11.10;;;9.90;;
6209;SDS011;3138;52.550;13.148;2022-09-09T04:21:19;14.23;;;9.87;;
6209;SDS011;3138;52.550;13.148;2022-09-09T04:23:46;12.40;;;9.77;;
6209;SDS011;3138;52.550;13.148;2022-09-09T04:26:14;10.40;;;8.30;;
6209;SDS011;3138;52.550;13.148;2022-09-09T04:28:41;12.30;;;8.33;;
6209;SDS011;3138;52.550;13.148;2022-09-09T04:31:08;11.97;;;8.57;;
6209;SDS011;3138;52.550;13.148;2022-09-09T04:33:36;14.67;;;8.60;;
6209;SDS011;3138;52.550;13.148;2022-09-09T04:36:04;10.17;;;8.20;;
6209;SDS011;3138;52.550;13.148;2022-09-09T04:38:31;9.73;;;8.33;;
6209;SDS011;3138;52.550;13.148;2022-09-09T04:40:58;12.63;;;7.70;;
6209;SDS011;3138;52.550;13.148;2022-09-09T04:43:26;9.33;;;7.97;;
6209;SDS011;3138;52.550;13.148;2022-09-09T04:45:55;12.00;;;8.33;;
6209;SDS011;3138;52.550;13.148;2022-09-09T04:48:23;11.60;;;9.87;;
6209;SDS011;3138;52.550;13.148;2022-09-09T04:50:53;14.07;;;10.30;;
6209;SDS011;3138;52.550;13.148;2022-09-09T04:53:21;16.57;;;9.30;;
6209;SDS011;3138;52.550;13.148;2022-09-09T04:55:48;11.00;;;9.13;;
6209;SDS011;3138;52.550;13.148;2022-09-09T04:58:15;9.40;;;8.43;;
6209;SDS011;3138;52.550;13.148;2022-09-09T05:00:46;12.00;;;9.03;;
6209;SDS011;3138;52.550;13.148;2022-09-09T05:03:28;11.80;;;9.20;;
6209;SDS011;3138;52.550;13.148;2022-09-09T05:05:59;11.17;;;9.47;;
6209;SDS011;3138;52.550;13.148;2022-09-09T05:08:29;14.83;;;9.63;;
6209;SDS011;3138;52.550;13.148;2022-09-09T05:10:55;20.10;;;7.53;;
6209;SDS011;3138;52.550;13.148;2022-09-09T05:13:23;16.30;;;9.77;;
6209;SDS011;3138;52.550;13.148;2022-09-09T05:15:52;15.67;;;9.13;;
6209;SDS011;3138;52.550;13.148;2022-09-09T05:18:19;14.13;;;8.33;;
6209;SDS011;3138;52.550;13.148;2022-09-09T05:20:47;16.70;;;10.37;;
6209;SDS011;3138;52.550;13.148;2022-09-09T05:23:14;15.67;;;8.47;;
6209;SDS011;3138;52.550;13.148;2022-09-09T05:25:41;15.90;;;10.20;;
6209;SDS011;3138;52.550;13.148;2022-09-09T05:28:08;15.10;;;10.07;;
6209;SDS011;3138;52.550;13.148;2022-09-09T05:30:36;16.80;;;9.90;;
6209;SDS011;3138;52.550;13.148;2022-09-09T05:33:04;12.60;;;8.53;;
6209;SDS011;3138;52.550;13.148;2022-09-09T05:35:31;9.77;;;8.77;;
6209;SDS011;3138;52.550;13.148;2022-09-09T05:37:59;11.77;;;8.53;;
6209;SDS011;3138;52.550;13.148;2022-09-09T05:40:26;9.40;;;7.80;;
6209;SDS011;3138;52.550;13.148;2022-09-09T05:42:53;12.90;;;8.80;;
6209;SDS011;3138;52.550;13.148;2022-09-09T05:45:20;16.20;;;9.30;;
6209;SDS011;3138;52.550;13.148;2022-09-09T05:47:51;12.50;;;7.83;;
6209;SDS011;3138;52.550;13.148;2022-09-09T05:50:20;13.67;;;8.83;;
6209;SDS011;3138;52.550;13.148;2022-09-09T05:52:47;8.90;;;8.10;;
6209;SDS011;3138;52.550;13.148;2022-09-09T05:55:14;12.60;;;8.77;;
6209;SDS011;3138;52.550;13.148;2022-09-09T05:57:41;8.07;;;7.20;;
6209;SDS011;3138;52.550;13.148;2022-09-09T06:00:08;13.00;;;7.67;;
6209;SDS011;3138;52.550;13.148;2022-09-09T06:02:37;8.30;;;7.50;;
6209;SDS011;3138;52.550;13.148;2022-09-09T06:05:04;8.00;;;6.77;;
6209;SDS011;3138;52.550;13.148;2022-09-09T06:07:33;13.80;;;7.43;;
6209;SDS011;3138;52.550;13.148;2022-09-09T06:10:00;15.30;;;7.40;;
6209;SDS011;3138;52.550;13.148;2022-09-09T06:12:27;12.90;;;8.00;;
6209;SDS011;3138;52.550;13.148;2022-09-09T06:14:53;15.00;;;7.90;;
6209;SDS011;3138;52.550;13.148;2022-09-09T06:17:20;9.80;;;8.07;;
6209;SDS011;3138;52.550;13.148;2022-09-09T06:19:47;10.53;;;7.33;;
6209;SDS011;3138;52.550;13.148;2022-09-09T06:22:14;12.40;;;6.27;;
6209;SDS011;3138;52.550;13.148;2022-09-09T06:24:42;7.40;;;6.70;;
6209;SDS011;3138;52.550;13.148;2022-09-09T06:27:09;18.30;;;6.77;;
6209;SDS011;3138;52.550;13.148;2022-09-09T06:29:38;6.10;;;5.30;;
6209;SDS011;3138;52.550;13.148;2022-09-09T06:32:05;9.07;;;6.10;;
6209;SDS011;3138;52.550;13.148;2022-09-09T06:34:33;16.53;;;4.90;;
6209;SDS011;3138;52.550;13.148;2022-09-09T06:37:00;7.80;;;5.30;;
6209;SDS011;3138;52.550;13.148;2022-09-09T06:39:27;12.87;;;5.80;;
6209;SDS011;3138;52.550;13.148;2022-09-09T06:41:55;10.73;;;4.33;;
6209;SDS011;3138;52.550;13.148;2022-09-09T06:44:23;10.60;;;4.00;;
6209;SDS011;3138;52.550;13.148;2022-09-09T06:46:51;9.23;;;4.20;;
6209;SDS011;3138;52.550;13.148;2022-09-09T06:49:18;5.80;;;4.27;;
6209;SDS011;3138;52.550;13.148;2022-09-09T06:51:45;10.50;;;4.20;;
6209;SDS011;3138;52.550;13.148;2022-09-09T06:54:12;8.60;;;3.90;;
6209;SDS011;3138;52.550;13.148;2022-09-09T06:56:39;10.27;;;4.37;;
6209;SDS011;3138;52.550;13.148;2022-09-09T06:59:09;7.53;;;3.60;;
6209;SDS011;3138;52.550;13.148;2022-09-09T07:01:37;8.40;;;4.13;;
6209;SDS011;3138;52.550;13.148;2022-09-09T07:04:05;4.23;;;3.20;;
6209;SDS011;3138;52.550;13.148;2022-09-09T07:06:33;11.83;;;5.50;;
6209;SDS011;3138;52.550;13.148;2022-09-09T07:09:02;8.73;;;4.00;;
6209;SDS011;3138;52.550;13.148;2022-09-09T07:11:31;5.70;;;3.50;;
6209;SDS011;3138;52.550;13.148;2022-09-09T07:13:59;3.97;;;3.37;;
6209;SDS011;3138;52.550;13.148;2022-09-09T07:16:28;7.57;;;4.00;;
6209;SDS011;3138;52.550;13.148;2022-09-09T07:18:56;8.03;;;4.40;;
6209;SDS011;3138;52.550;13.148;2022-09-09T07:21:23;3.80;;;3.50;;
6209;SDS011;3138;52.550;13.148;2022-09-09T07:23:52;4.57;;;3.23;;
6209;SDS011;3138;52.550;13.148;2022-09-09T07:26:20;5.23;;;3.07;;
6209;SDS011;3138;52.550;13.148;2022-09-09T07:28:48;12.77;;;3.50;;
6209;SDS011;3138;52.550;13.148;2022-09-09T07:31:15;4.77;;;3.37;;
6209;SDS011;3138;52.550;13.148;2022-09-09T07:33:44;11.53;;;3.00;;
6209;SDS011;3138;52.550;13.148;2022-09-09T07:36:13;5.10;;;3.50;;
6209;SDS011;3138;52.550;13.148;2022-09-09T07:38:42;4.67;;;3.00;;
6209;SDS011;3138;52.550;13.148;2022-09-09T07:41:12;5.83;;;3.60;;
6209;SDS011;3138;52.550;13.148;2022-09-09T07:43:41;7.70;;;3.17;;
6209;SDS011;3138;52.550;13.148;2022-09-09T07:46:09;6.63;;;3.60;;
6209;SDS011;3138;52.550;13.148;2022-09-09T07:48:38;9.23;;;2.87;;
6209;SDS011;3138;52.550;13.148;2022-09-09T07:51:08;3.50;;;2.30;;
6209;SDS011;3138;52.550;13.148;2022-09-09T07:53:36;4.20;;;2.20;;
6209;SDS011;3138;52.550;13.148;2022-09-09T07:56:05;5.47;;;2.60;;
6209;SDS011;3138;52.550;13.148;2022-09-09T07:58:34;9.07;;;2.57;;
6209;SDS011;3138;52.550;13.148;2022-09-09T08:01:05;3.90;;;2.00;;
6209;SDS011;3138;52.550;13.148;2022-09-09T08:03:33;4.23;;;2.10;;
6209;SDS011;3138;52.550;13.148;2022-09-09T08:06:00;6.43;;;2.67;;
6209;SDS011;3138;52.550;13.148;2022-09-09T08:08:29;4.20;;;2.07;;
6209;SDS011;3138;52.550;13.148;2022-09-09T08:11:03;10.57;;;2.70;;
6209;SDS011;3138;52.550;13.148;2022-09-09T08:13:32;6.43;;;2.40;;
6209;SDS011;3138;52.550;13.148;2022-09-09T08:16:06;3.93;;;2.57;;
6209;SDS011;3138;52.550;13.148;2022-09-09T08:18:34;7.73;;;2.43;;
6209;SDS011;3138;52.550;13.148;2022-09-09T08:21:04;8.70;;;2.33;;
6209;SDS011;3138;52.550;13.148;2022-09-09T08:23:34;3.53;;;2.00;;
6209;SDS011;3138;52.550;13.148;2022-09-09T08:26:05;6.40;;;1.97;;
6209;SDS011;3138;52.550;13.148;2022-09-09T08:28:35;10.13;;;1.97;;
6209;SDS011;3138;52.550;13.148;2022-09-09T08:31:06;4.83;;;2.33;;
6209;SDS011;3138;52.550;13.148;2022-09-09T08:33:37;4.20;;;2.07;;
6209;SDS011;3138;52.550;13.148;2022-09-09T08:36:04;6.93;;;1.93;;
6209;SDS011;3138;52.550;13.148;2022-09-09T08:38:32;6.83;;;2.30;;
6209;SDS011;3138;52.550;13.148;2022-09-09T08:41:03;7.17;;;2.17;;
6209;SDS011;3138;52.550;13.148;2022-09-09T08:43:39;9.13;;;2.20;;
6209;SDS011;3138;52.550;13.148;2022-09-09T08:46:09;15.57;;;2.53;;
6209;SDS011;3138;52.550;13.148;2022-09-09T08:48:45;6.90;;;2.20;;
6209;SDS011;3138;52.550;13.148;2022-09-09T08:51:21;5.17;;;1.50;;
6209;SDS011;3138;52.550;13.148;2022-09-09T08:53:51;5.10;;;2.70;;
6209;SDS011;3138;52.550;13.148;2022-09-09T08:56:21;5.17;;;2.10;;
6209;SDS011;3138;52.550;13.148;2022-09-09T08:58:51;2.53;;;1.70;;
6209;SDS011;3138;52.550;13.148;2022-09-09T09:01:28;6.03;;;1.97;;
6209;SDS011;3138;52.550;13.148;2022-09-09T09:04:14;4.93;;;2.07;;
6209;SDS011;3138;52.550;13.148;2022-09-09T09:07:01;4.27;;;2.23;;
6209;SDS011;3138;52.550;13.148;2022-09-09T09:09:35;3.70;;;2.37;;
6209;SDS011;3138;52.550;13.148;2022-09-09T09:12:14;8.90;;;2.93;;
6209;SDS011;3138;52.550;13.148;2022-09-09T09:14:43;8.00;;;1.80;;
6209;SDS011;3138;52.550;13.148;2022-09-09T09:17:14;9.37;;;2.17;;
6209;SDS011;3138;52.550;13.148;2022-09-09T09:19:42;5.53;;;1.70;;
6209;SDS011;3138;52.550;13.148;2022-09-09T09:22:14;4.40;;;1.77;;
6209;SDS011;3138;52.550;13.148;2022-09-09T09:24:45;5.07;;;1.80;;
6209;SDS011;3138;52.550;13.148;2022-09-09T09:27:21;2.27;;;1.73;;
6209;SDS011;3138;52.550;13.148;2022-09-09T09:29:55;5.33;;;2.00;;
6209;SDS011;3138;52.550;13.148;2022-09-09T09:32:24;7.13;;;1.73;;
6209;SDS011;3138;52.550;13.148;2022-09-09T09:34:52;8.50;;;2.23;;
6209;SDS011;3138;52.550;13.148;2022-09-09T09:37:23;9.53;;;2.30;;
6209;SDS011;3138;52.550;13.148;2022-09-09T09:39:54;9.33;;;1.73;;
6209;SDS011;3138;52.550;13.148;2022-09-09T09:42:22;8.23;;;2.40;;
6209;SDS011;3138;52.550;13.148;2022-09-09T09:44:49;10.03;;;1.63;;
6209;SDS011;3138;52.550;13.148;2022-09-09T09:47:16;6.63;;;2.60;;
6209;SDS011;3138;52.550;13.148;2022-09-09T09:49:53;6.90;;;1.73;;
6209;SDS011;3138;52.550;13.148;2022-09-09T09:52:22;4.73;;;2.10;;
6209;SDS011;3138;52.550;13.148;2022-09-09T09:54:50;5.03;;;1.80;;
6209;SDS011;3138;52.550;13.148;2022-09-09T09:57:18;2.73;;;1.57;;
6209;SDS011;3138;52.550;13.148;2022-09-09T10:00:00;3.33;;;1.50;;
6209;SDS011;3138;52.550;13.148;2022-09-09T10:02:31;4.40;;;1.80;;
6209;SDS011;3138;52.550;13.148;2022-09-09T10:05:05;6.37;;;1.83;;
6209;SDS011;3138;52.550;13.148;2022-09-09T10:07:38;5.50;;;1.80;;
6209;SDS011;3138;52.550;13.148;2022-09-09T10:10:05;8.83;;;1.90;;
6209;SDS011;3138;52.550;13.148;2022-09-09T10:12:39;3.87;;;1.70;;
6209;SDS011;3138;52.550;13.148;2022-09-09T10:15:19;7.30;;;1.90;;
6209;SDS011;3138;52.550;13.148;2022-09-09T10:17:57;7.07;;;2.00;;
6209;SDS011;3138;52.550;13.148;2022-09-09T10:20:35;3.27;;;1.57;;
6209;SDS011;3138;52.550;13.148;2022-09-09T10:23:12;5.83;;;1.20;;
6209;SDS011;3138;52.550;13.148;2022-09-09T10:26:02;8.33;;;1.53;;
6209;SDS011;3138;52.550;13.148;2022-09-09T10:28:49;3.90;;;1.30;;
6209;SDS011;3138;52.550;13.148;2022-09-09T10:31:31;2.73;;;1.50;;
6209;SDS011;3138;52.550;13.148;2022-09-09T10:34:10;6.93;;;2.00;;
6209;SDS011;3138;52.550;13.148;2022-09-09T10:36:46;7.80;;;1.43;;
6209;SDS011;3138;52.550;13.148;2022-09-09T10:39:18;15.97;;;1.93;;
6209;SDS011;3138;52.550;13.148;2022-09-09T10:41:59;6.13;;;2.30;;
6209;SDS011;3138;52.550;13.148;2022-09-09T10:44:36;5.63;;;1.60;;
6209;SDS011;3138;52.550;13.148;2022-09-09T10:47:14;1.70;;;1.27;;
6209;SDS011;3138;52.550;13.148;2022-09-09T10:49:58;5.83;;;1.57;;
6209;SDS011;3138;52.550;13.148;2022-09-09T10:52:39;2.83;;;1.60;;
6209;SDS011;3138;52.550;13.148;2022-09-09T10:55:13;7.37;;;1.90;;
6209;SDS011;3138;52.550;13.148;2022-09-09T10:57:44;3.53;;;1.40;;
6209;SDS011;3138;52.550;13.148;2022-09-09T11:00:15;4.77;;;1.60;;
6209;SDS011;3138;52.550;13.148;2022-09-09T11:02:45;7.00;;;1.90;;
6209;SDS011;3138;52.550;13.148;2022-09-09T11:05:16;3.57;;;1.07;;
6209;SDS011;3138;52.550;13.148;2022-09-09T11:07:47;5.50;;;1.27;;
6209;SDS011;3138;52.550;13.148;2022-09-09T11:10:19;5.90;;;1.50;;
6209;SDS011;3138;52.550;13.148;2022-09-09T11:12:50;6.30;;;1.47;;
6209;SDS011;3138;52.550;13.148;2022-09-09T11:15:23;9.90;;;2.10;;
6209;SDS011;3138;52.550;13.148;2022-09-09T11:17:58;5.70;;;1.80;;
6209;SDS011;3138;52.550;13.148;2022-09-09T11:20:29;2.97;;;1.13;;
6209;SDS011;3138;52.550;13.148;2022-09-09T11:22:58;2.40;;;1.50;;
6209;SDS011;3138;52.550;13.148;2022-09-09T11:25:29;6.93;;;1.47;;
6209;SDS011;3138;52.550;13.148;2022-09-09T11:28:04;5.77;;;2.07;;
6209;SDS011;3138;52.550;13.148;2022-09-09T11:30:52;1.53;;;1.43;;
6209;SDS011;3138;52.550;13.148;2022-09-09T11:33:42;13.43;;;1.13;;
6209;SDS011;3138;52.550;13.148;2022-09-09T11:36:48;5.03;;;2.13;;
6209;SDS011;3138;52.550;13.148;2022-09-09T11:39:34;7.13;;;1.67;;
6209;SDS011;3138;52.550;13.148;2022-09-09T11:42:15;8.97;;;2.60;;
6209;SDS011;3138;52.550;13.148;2022-09-09T11:44:44;3.33;;;1.43;;
6209;SDS011;3138;52.550;13.148;2022-09-09T11:47:24;5.17;;;1.60;;
6209;SDS011;3138;52.550;13.148;2022-09-09T11:49:54;5.90;;;1.67;;
6209;SDS011;3138;52.550;13.148;2022-09-09T11:52:22;5.20;;;1.73;;
6209;SDS011;3138;52.550;13.148;2022-09-09T11:54:54;4.67;;;1.37;;
6209;SDS011;3138;52.550;13.148;2022-09-09T11:57:23;8.83;;;1.93;;
6209;SDS011;3138;52.550;13.148;2022-09-09T11:59:58;4.70;;;1.50;;
6209;SDS011;3138;52.550;13.148;2022-09-09T12:02:26;3.83;;;1.43;;
6209;SDS011;3138;52.550;13.148;2022-09-09T12:04:56;5.40;;;1.27;;
6209;SDS011;3138;52.550;13.148;2022-09-09T12:07:29;9.70;;;2.10;;
6209;SDS011;3138;52.550;13.148;2022-09-09T12:10:02;5.30;;;1.30;;
6209;SDS011;3138;52.550;13.148;2022-09-09T12:12:33;5.97;;;1.27;;
6209;SDS011;3138;52.550;13.148;2022-09-09T12:15:21;5.53;;;1.23;;
6209;SDS011;3138;52.550;13.148;2022-09-09T12:17:54;2.13;;;1.10;;
6209;SDS011;3138;52.550;13.148;2022-09-09T12:20:23;3.60;;;1.20;;
6209;SDS011;3138;52.550;13.148;2022-09-09T12:23:01;2.87;;;1.33;;
6209;SDS011;3138;52.550;13.148;2022-09-09T12:25:49;5.47;;;1.77;;
6209;SDS011;3138;52.550;13.148;2022-09-09T12:28:24;2.47;;;1.10;;
6209;SDS011;3138;52.550;13.148;2022-09-09T12:31:09;18.73;;;1.17;;
6209;SDS011;3138;52.550;13.148;2022-09-09T12:33:44;2.10;;;1.03;;
6209;SDS011;3138;52.550;13.148;2022-09-09T12:36:14;5.40;;;1.40;;
6209;SDS011;3138;52.550;13.148;2022-09-09T12:38:44;4.47;;;1.23;;
6209;SDS011;3138;52.550;13.148;2022-09-09T12:41:18;5.03;;;1.60;;
6209;SDS011;3138;52.550;13.148;2022-09-09T12:43:47;2.97;;;1.10;;
6209;SDS011;3138;52.550;13.148;2022-09-09T12:46:17;5.23;;;1.47;;
6209;SDS011;3138;52.550;13.148;2022-09-09T12:48:58;3.30;;;1.70;;
6209;SDS011;3138;52.550;13.148;2022-09-09T12:51:25;9.03;;;2.50;;
6209;SDS011;3138;52.550;13.148;2022-09-09T12:53:55;6.37;;;1.50;;
6209;SDS011;3138;52.550;13.148;2022-09-09T12:56:23;5.80;;;1.20;;
6209;SDS011;3138;52.550;13.148;2022-09-09T12:58:53;4.60;;;1.63;;
6209;SDS011;3138;52.550;13.148;2022-09-09T13:01:22;1.93;;;1.30;;
6209;SDS011;3138;52.550;13.148;2022-09-09T13:03:50;3.77;;;1.30;;
6209;SDS011;3138;52.550;13.148;2022-09-09T13:06:23;4.33;;;1.13;;
6209;SDS011;3138;52.550;13.148;2022-09-09T13:08:51;6.30;;;1.07;;
6209;SDS011;3138;52.550;13.148;2022-09-09T13:11:20;4.43;;;1.47;;
6209;SDS011;3138;52.550;13.148;2022-09-09T13:13:51;5.43;;;1.10;;
6209;SDS011;3138;52.550;13.148;2022-09-09T13:16:19;8.60;;;1.30;;
6209;SDS011;3138;52.550;13.148;2022-09-09T13:18:48;7.83;;;1.37;;
6209;SDS011;3138;52.550;13.148;2022-09-09T13:21:16;3.80;;;1.83;;
6209;SDS011;3138;52.550;13.148;2022-09-09T13:23:49;1.23;;;0.93;;
6209;SDS011;3138;52.550;13.148;2022-09-09T13:26:21;2.57;;;1.03;;
6209;SDS011;3138;52.550;13.148;2022-09-09T13:28:49;1.73;;;1.37;;
6209;SDS011;3138;52.550;13.148;2022-09-09T13:31:21;5.40;;;1.47;;
6209;SDS011;3138;52.550;13.148;2022-09-09T13:33:49;7.03;;;1.50;;
6209;SDS011;3138;52.550;13.148;2022-09-09T13:36:26;7.20;;;1.60;;
6209;SDS011;3138;52.550;13.148;2022-09-09T13:38:56;6.67;;;1.53;;
6209;SDS011;3138;52.550;13.148;2022-09-09T13:41:25;8.00;;;1.80;;
6209;SDS011;3138;52.550;13.148;2022-09-09T13:43:56;6.07;;;1.57;;
6209;SDS011;3138;52.550;13.148;2022-09-09T13:46:28;2.57;;;1.70;;
6209;SDS011;3138;52.550;13.148;2022-09-09T13:48:59;3.70;;;1.20;;
6209;SDS011;3138;52.550;13.148;2022-09-09T13:51:29;2.73;;;1.23;;
6209;SDS011;3138;52.550;13.148;2022-09-09T13:54:03;4.27;;;1.40;;
6209;SDS011;3138;52.550;13.148;2022-09-09T13:56:31;6.20;;;1.67;;
6209;SDS011;3138;52.550;13.148;2022-09-09T13:58:58;5.63;;;1.60;;
6209;SDS011;3138;52.550;13.148;2022-09-09T14:01:25;5.47;;;1.60;;
6209;SDS011;3138;52.550;13.148;2022-09-09T14:03:53;4.30;;;2.00;;
6209;SDS011;3138;52.550;13.148;2022-09-09T14:06:19;3.87;;;0.93;;
6209;SDS011;3138;52.550;13.148;2022-09-09T14:08:47;4.50;;;1.63;;
6209;SDS011;3138;52.550;13.148;2022-09-09T14:11:16;2.77;;;1.33;;
6209;SDS011;3138;52.550;13.148;2022-09-09T14:13:44;8.27;;;1.20;;
6209;SDS011;3138;52.550;13.148;2022-09-09T14:16:12;1.80;;;1.20;;
6209;SDS011;3138;52.550;13.148;2022-09-09T14:18:39;8.03;;;2.20;;
6209;SDS011;3138;52.550;13.148;2022-09-09T14:21:07;7.23;;;1.33;;
6209;SDS011;3138;52.550;13.148;2022-09-09T14:23:34;8.33;;;1.67;;
6209;SDS011;3138;52.550;13.148;2022-09-09T14:26:01;7.40;;;1.77;;
6209;SDS011;3138;52.550;13.148;2022-09-09T14:28:29;6.23;;;1.60;;
6209;SDS011;3138;52.550;13.148;2022-09-09T14:30:58;4.17;;;1.90;;
6209;SDS011;3138;52.550;13.148;2022-09-09T14:33:25;3.60;;;1.30;;
6209;SDS011;3138;52.550;13.148;2022-09-09T14:35:55;2.43;;;1.10;;
6209;SDS011;3138;52.550;13.148;2022-09-09T14:38:22;10.90;;;0.70;;
6209;SDS011;3138;52.550;13.148;2022-09-09T14:40:49;2.37;;;0.90;;
6209;SDS011;3138;52.550;13.148;2022-09-09T14:43:15;11.13;;;1.00;;
6209;SDS011;3138;52.550;13.148;2022-09-09T14:45:43;5.37;;;1.10;;
6209;SDS011;3138;52.550;13.148;2022-09-09T14:48:10;4.40;;;1.23;;
6209;SDS011;3138;52.550;13.148;2022-09-09T14:50:37;4.33;;;1.33;;
6209;SDS011;3138;52.550;13.148;2022-09-09T14:53:05;1.90;;;1.30;;
6209;SDS011;3138;52.550;13.148;2022-09-09T14:55:32;6.00;;;1.80;;
6209;SDS011;3138;52.550;13.148;2022-09-09T14:57:58;8.43;;;1.33;;
6209;SDS011;3138;52.550;13.148;2022-09-09T15:00:25;4.93;;;1.20;;
6209;SDS011;3138;52.550;13.148;2022-09-09T15:02:54;3.93;;;1.10;;
6209;SDS011;3138;52.550;13.148;2022-09-09T15:05:21;4.00;;;0.93;;
6209;SDS011;3138;52.550;13.148;2022-09-09T15:07:49;2.73;;;0.93;;
6209;SDS011;3138;52.550;13.148;2022-09-09T15:10:16;2.23;;;1.00;;
6209;SDS011;3138;52.550;13.148;2022-09-09T15:12:43;3.63;;;1.23;;
6209;SDS011;3138;52.550;13.148;2022-09-09T15:15:10;3.90;;;1.03;;